首页
METAR-TAF:

METAR-TAF

机场 :

Fort Chipewyan, 艾伯塔, 加拿大

纬度: 58-46N, 经度: 111-07W, 海拔: 232米

当前天气观测

该预报发布于22分钟前的18:00 UTC
风速7节,风向西,在西南西转西北之间变化
温度 18°C
湿度 42%
气压 1004 hPa
能見度: 14.5公里
天空无云

METAR: CYPY 021800Z AUTO 26007KT 220V290 9SM CLR 18/05 A2964 RMK SLP047 DENSITY ALT 1600FT

时间: 12:22 (18:22 UTC)

预报

该预报发布于43分钟前的17:39 UTC
预报有效从02日的 18点(UTC)到 03日的 06点(UTC)
风速6节,风向西
能見度: 10公里
天空无云
从 02日的 2100点(UTC)
风速8节,风向西
能見度: 10公里
多云层高于8000英尺
短暂存在
从 02日的 21点(UTC)到 03日的 06点(UTC)
能見度: 10公里
多云层高于7000英尺
小阵雨

TAF: CYPY 021739Z 0218/0306 26006KT P6SM SKC FM022100 26008KT P6SM BKN080 TEMPO 0221/0306 P6SM -SHRA BKN070 RMK FCST BASED ON AUTO OBS. NXT FCST BY 030000Z

超过4000个机场的气象观测和天气预报(METAR&TAF报告)。

可查询的气象台以黄色和红色小点在地图上表示。

将鼠标移到小点上方,可查看气象台名称。

然后点击查看天气观测和预报。

如需切换地图:点击带黑十字的绿色按钮放大地图;点击带横线的绿色按钮缩小地图;或者点击绿色箭头查看邻近地区的地图。


METAR-TAF: